This is the latest recevied weather packets stored in our database for station/object PU5FJO-13. If no packets are shown the sender has not sent any weather packets the latest 10 day(s).
| Time | Temp. | Humidity | Pressure | Rain* | Wind** | Luminosity | Snow |
|---|---|---|---|---|---|---|---|
| 1778060774 | 19.44° C | 81% | 1019.7 hPa | - | - | - | - |
| 1778060174 | 18.89° C | 85% | 1019.6 hPa | - | - | - | - |
| 1778059574 | 19.44° C | 82% | 1019.5 hPa | - | - | - | - |
| 1778058974 | 18.89° C | 84% | 1019.4 hPa | - | - | - | - |
| 1778058374 | 18.89° C | 85% | 1019.2 hPa | - | - | - | - |
| 1778057774 | 20° C | 81% | 1019.3 hPa | - | - | - | - |
| 1778057174 | 20° C | 84% | 1019.2 hPa | - | - | - | - |
| 1778056574 | 20° C | 86% | 1019 hPa | - | - | - | - |
| 1778055974 | 20° C | 83% | 1018.9 hPa | - | - | - | - |
| 1778055374 | 20.56° C | 79% | 1018.9 hPa | - | - | - | - |
| 1778054774 | 20° C | 80% | 1018.9 hPa | - | - | - | - |
| 1778054174 | 20.56° C | 80% | 1018.9 hPa | - | - | - | - |
| 1778053574 | 20.56° C | 78% | 1018.9 hPa | - | - | - | - |
| 1778052974 | 20.56° C | 80% | 1018.9 hPa | - | - | - | - |
| 1778052374 | 20° C | 82% | 1019.1 hPa | - | - | - | - |
| 1778051774 | 20° C | 80% | 1019.3 hPa | - | - | - | - |
| 1778051174 | 20.56° C | 79% | 1019.3 hPa | - | - | - | - |
| 1778050574 | 20° C | 81% | 1019.4 hPa | - | - | - | - |
| 1778049974 | 19.44° C | 82% | 1019.5 hPa | - | - | - | - |
| 1778049374 | 19.44° C | 82% | 1019.6 hPa | - | - | - | - |
| 1778048774 | 19.44° C | 83% | 1019.5 hPa | - | - | - | - |
| 1778048174 | 20° C | 81% | 1019.5 hPa | - | - | - | - |
| 1778047574 | 19.44° C | 84% | 1019.5 hPa | - | - | - | - |
| 1778046974 | 20° C | 82% | 1019.4 hPa | - | - | - | - |
| 1778046374 | 20.56° C | 81% | 1019.3 hPa | - | - | - | - |
* Rain since midnight (hover to see other rain measurements)
** Current wind speed in m/s (hover to see current wind gust speed)